Aviation Digital Data Service (ADDS)

Output produced by METARs form (1826 UTC 16 August 2018)
found at http://www.aviationweather.gov/adds/metars/
 
TAF AMD KVBG 1616/1720 28009KT 9999 BKN009 QNH3003INS 
     BECMG 1618/1619 30012KT 9999 FEW010 QNH3000INS 
     BECMG 1701/1702 33009KT 8000 BR BKN007 QNH3000INS 
     BECMG 1703/1704 33006KT 3200 BR OVC002 QNH3002INS 
     BECMG 1704/1705 33006KT 0800 FG VV001 QNH3004INS 
     BECMG 1715/1716 31009KT 8000 BR BKN003 QNH3006INS 
     BECMG 1717/1718 30009KT 9999 NSW SCT003 QNH3007INS TX21/1622Z TN15/1712Z
       
KVCT 161725Z 1618/1718 16012G20KT P6SM SCT250 
     FM170500 16008KT P6SM SCT250 
     FM171600 16012KT P6SM SKC
       
KVEL 161741Z 1618/1718 VRB03KT P6SM VCSH SCT120 BKN200 
     FM162100 30008KT P6SM FEW120 SCT250 
     FM170600 28005KT P6SM FEW250 
     FM171400 VRB04KT P6SM FEW250
       
KVGT 161737Z 1618/1718 VRB06KT P6SM FEW120 SCT150 BKN200 
     FM161900 11009KT P6SM SCT180 
     FM162100 16008KT P6SM VCTS SCT100CB BKN180 
     FM170200 19007KT P6SM SCT120 BKN200 
     FM170600 29010KT P6SM SCT120 BKN200 
     FM171100 VRB05KT P6SM SCT120
       
KVIS 161727Z 1618/1718 30004KT 6SM HZ SKC
       
KVLD 161732Z 1618/1718 VRB04KT P6SM SCT030 SCT250 
     FM171500 18007KT P6SM SCT030 OVC120
       
KVNY 161727Z 1618/1718 00000KT 6SM HZ SKC 
     FM162000 15008KT P6SM SKC 
     FM170000 10006KT P6SM SKC 
     FM170500 VRB03KT P6SM SKC 
     FM171600 12005KT P6SM SKC
       
TAF KVPS 161700Z 1617/1723 19009KT 9999 VCTS SCT025CB BKN080 BKN250 QNH3008INS 
     TEMPO 1619/1623 18015G20KT 4800 -TSRA BKN030CB BKN150 BKN250 
     BECMG 1700/1701 18006KT 9999 VCSH FEW015 SCT035 SCT080 BKN250 QNH3008INS 
     BECMG 1708/1709 18004KT 9999 -SHRA VCTS SCT015CB BKN020 BKN080 BKN250 QNH3006INS 
     BECMG 1712/1713 19006KT 9999 -SHRA VCTS BKN025CB BKN100 BKN250 QNH3011INS 
     TEMPO 1713/1717 20012G18KT 4800 -TSRA BKN025CB BKN100 BKN250 
     BECMG 1718/1719 20012KT 9999 -SHRA VCTS BKN025CB BKN100 BKN250 QNH3008INS TX30/1619Z TN23/1710Z
       
KVQQ 161821Z 1618/1718 16008KT P6SM VCTS SCT035CB BKN070 
     TEMPO 1618/1622 VRB15G25KT 4SM TSRA BKN025CB 
     FM170100 VRB03KT P6SM SCT150 BKN250
       
KVRB 161720Z 1618/1718 12010KT P6SM SCT030 
     FM170300 12004KT P6SM SCT250 
     FM171400 13010KT P6SM FEW030
       
KVTN 161729Z 1618/1718 33006KT P6SM FEW250 
     FM162300 03007KT P6SM FEW250 
     FM170200 VRB04KT P6SM FEW250